sensor_id;sensor_type;location;lat;lon;timestamp;P1;durP1;ratioP1;P2;durP2;ratioP2
29570;SDS011;16814;52.118;11.436;2023-05-29T00:01:26;20.60;;;5.00;;
29570;SDS011;16814;52.118;11.436;2023-05-29T00:03:52;12.13;;;5.20;;
29570;SDS011;16814;52.118;11.436;2023-05-29T00:06:23;12.82;;;4.90;;
29570;SDS011;16814;52.118;11.436;2023-05-29T00:08:50;11.65;;;4.90;;
29570;SDS011;16814;52.118;11.436;2023-05-29T00:11:19;11.98;;;4.68;;
29570;SDS011;16814;52.118;11.436;2023-05-29T00:13:46;9.10;;;4.60;;
29570;SDS011;16814;52.118;11.436;2023-05-29T00:16:17;11.65;;;4.78;;
29570;SDS011;16814;52.118;11.436;2023-05-29T00:18:44;11.37;;;4.80;;
29570;SDS011;16814;52.118;11.436;2023-05-29T00:21:10;12.30;;;4.60;;
29570;SDS011;16814;52.118;11.436;2023-05-29T00:23:38;13.40;;;5.18;;
29570;SDS011;16814;52.118;11.436;2023-05-29T00:26:05;15.37;;;5.10;;
29570;SDS011;16814;52.118;11.436;2023-05-29T00:28:33;13.30;;;5.13;;
29570;SDS011;16814;52.118;11.436;2023-05-29T00:31:00;10.50;;;4.30;;
29570;SDS011;16814;52.118;11.436;2023-05-29T00:33:27;15.55;;;5.30;;
29570;SDS011;16814;52.118;11.436;2023-05-29T00:35:53;16.27;;;5.60;;
29570;SDS011;16814;52.118;11.436;2023-05-29T00:38:18;14.27;;;5.23;;
29570;SDS011;16814;52.118;11.436;2023-05-29T00:40:46;14.10;;;5.50;;
29570;SDS011;16814;52.118;11.436;2023-05-29T00:43:15;16.85;;;5.32;;
29570;SDS011;16814;52.118;11.436;2023-05-29T00:45:40;10.80;;;5.00;;
29570;SDS011;16814;52.118;11.436;2023-05-29T00:48:07;14.82;;;4.68;;
29570;SDS011;16814;52.118;11.436;2023-05-29T00:50:33;12.90;;;5.10;;
29570;SDS011;16814;52.118;11.436;2023-05-29T00:53:01;15.80;;;5.32;;
29570;SDS011;16814;52.118;11.436;2023-05-29T00:55:27;13.77;;;5.18;;
29570;SDS011;16814;52.118;11.436;2023-05-29T00:57:57;11.90;;;5.13;;
29570;SDS011;16814;52.118;11.436;2023-05-29T01:00:22;12.10;;;4.93;;
29570;SDS011;16814;52.118;11.436;2023-05-29T01:02:50;14.98;;;5.18;;
29570;SDS011;16814;52.118;11.436;2023-05-29T01:05:18;10.13;;;4.88;;
29570;SDS011;16814;52.118;11.436;2023-05-29T01:07:45;10.02;;;4.63;;
29570;SDS011;16814;52.118;11.436;2023-05-29T01:10:15;14.38;;;5.10;;
29570;SDS011;16814;52.118;11.436;2023-05-29T01:12:54;13.40;;;5.23;;
29570;SDS011;16814;52.118;11.436;2023-05-29T01:15:52;10.93;;;5.05;;
29570;SDS011;16814;52.118;11.436;2023-05-29T01:27:09;12.80;;;4.67;;
29570;SDS011;16814;52.118;11.436;2023-05-29T01:29:44;12.80;;;5.47;;
29570;SDS011;16814;52.118;11.436;2023-05-29T01:32:12;12.18;;;5.40;;
29570;SDS011;16814;52.118;11.436;2023-05-29T01:34:40;11.18;;;5.03;;
29570;SDS011;16814;52.118;11.436;2023-05-29T01:37:08;12.38;;;4.80;;
29570;SDS011;16814;52.118;11.436;2023-05-29T01:39:36;13.20;;;5.13;;
29570;SDS011;16814;52.118;11.436;2023-05-29T01:42:04;10.55;;;4.60;;
29570;SDS011;16814;52.118;11.436;2023-05-29T01:44:31;13.53;;;5.17;;
29570;SDS011;16814;52.118;11.436;2023-05-29T01:46:58;13.82;;;5.05;;
29570;SDS011;16814;52.118;11.436;2023-05-29T01:49:25;11.30;;;5.25;;
29570;SDS011;16814;52.118;11.436;2023-05-29T01:52:04;17.13;;;5.45;;
29570;SDS011;16814;52.118;11.436;2023-05-29T01:54:30;10.50;;;5.20;;
29570;SDS011;16814;52.118;11.436;2023-05-29T01:56:56;10.83;;;5.00;;
29570;SDS011;16814;52.118;11.436;2023-05-29T01:59:23;11.00;;;4.90;;
29570;SDS011;16814;52.118;11.436;2023-05-29T02:01:51;10.85;;;5.18;;
29570;SDS011;16814;52.118;11.436;2023-05-29T02:04:18;14.13;;;5.03;;
29570;SDS011;16814;52.118;11.436;2023-05-29T02:06:45;12.30;;;4.67;;
29570;SDS011;16814;52.118;11.436;2023-05-29T02:09:13;11.98;;;4.60;;
29570;SDS011;16814;52.118;11.436;2023-05-29T02:11:40;12.37;;;5.00;;
29570;SDS011;16814;52.118;11.436;2023-05-29T02:14:10;12.20;;;5.03;;
29570;SDS011;16814;52.118;11.436;2023-05-29T02:16:37;13.93;;;5.28;;
29570;SDS011;16814;52.118;11.436;2023-05-29T02:19:06;12.93;;;4.82;;
29570;SDS011;16814;52.118;11.436;2023-05-29T02:21:33;10.23;;;4.57;;
29570;SDS011;16814;52.118;11.436;2023-05-29T02:24:00;11.67;;;4.57;;
29570;SDS011;16814;52.118;11.436;2023-05-29T02:26:27;11.68;;;5.10;;
29570;SDS011;16814;52.118;11.436;2023-05-29T02:28:52;11.52;;;5.00;;
29570;SDS011;16814;52.118;11.436;2023-05-29T02:31:19;11.67;;;4.93;;
29570;SDS011;16814;52.118;11.436;2023-05-29T02:33:46;15.93;;;5.20;;
29570;SDS011;16814;52.118;11.436;2023-05-29T02:36:13;10.82;;;4.63;;
29570;SDS011;16814;52.118;11.436;2023-05-29T02:38:39;12.50;;;5.07;;
29570;SDS011;16814;52.118;11.436;2023-05-29T02:41:06;10.10;;;4.40;;
29570;SDS011;16814;52.118;11.436;2023-05-29T02:43:34;11.93;;;4.53;;
29570;SDS011;16814;52.118;11.436;2023-05-29T02:46:07;10.80;;;4.75;;
29570;SDS011;16814;52.118;11.436;2023-05-29T02:48:35;11.13;;;4.75;;
29570;SDS011;16814;52.118;11.436;2023-05-29T02:51:00;10.90;;;4.60;;
29570;SDS011;16814;52.118;11.436;2023-05-29T02:53:27;12.13;;;4.60;;
29570;SDS011;16814;52.118;11.436;2023-05-29T02:55:56;10.48;;;4.63;;
29570;SDS011;16814;52.118;11.436;2023-05-29T02:58:23;10.43;;;4.67;;
29570;SDS011;16814;52.118;11.436;2023-05-29T03:00:48;9.30;;;4.25;;
29570;SDS011;16814;52.118;11.436;2023-05-29T03:03:16;14.10;;;5.20;;
29570;SDS011;16814;52.118;11.436;2023-05-29T03:05:45;8.10;;;4.18;;
29570;SDS011;16814;52.118;11.436;2023-05-29T03:08:11;10.52;;;4.82;;
29570;SDS011;16814;52.118;11.436;2023-05-29T03:10:39;12.40;;;4.53;;
29570;SDS011;16814;52.118;11.436;2023-05-29T03:13:07;11.40;;;4.78;;
29570;SDS011;16814;52.118;11.436;2023-05-29T03:15:36;10.40;;;4.90;;
29570;SDS011;16814;52.118;11.436;2023-05-29T03:18:03;11.45;;;4.47;;
29570;SDS011;16814;52.118;11.436;2023-05-29T03:20:29;10.90;;;4.80;;
29570;SDS011;16814;52.118;11.436;2023-05-29T03:22:56;11.23;;;4.72;;
29570;SDS011;16814;52.118;11.436;2023-05-29T03:25:21;8.75;;;4.50;;
29570;SDS011;16814;52.118;11.436;2023-05-29T03:27:47;9.82;;;4.53;;
29570;SDS011;16814;52.118;11.436;2023-05-29T03:30:14;10.73;;;4.43;;
29570;SDS011;16814;52.118;11.436;2023-05-29T03:32:40;10.60;;;4.30;;
29570;SDS011;16814;52.118;11.436;2023-05-29T03:35:08;11.77;;;4.57;;
29570;SDS011;16814;52.118;11.436;2023-05-29T03:37:34;10.48;;;4.50;;
29570;SDS011;16814;52.118;11.436;2023-05-29T03:40:00;11.50;;;4.40;;
29570;SDS011;16814;52.118;11.436;2023-05-29T03:42:27;9.43;;;4.22;;
29570;SDS011;16814;52.118;11.436;2023-05-29T03:44:54;9.55;;;4.22;;
29570;SDS011;16814;52.118;11.436;2023-05-29T03:47:20;11.65;;;4.38;;
29570;SDS011;16814;52.118;11.436;2023-05-29T03:49:46;10.15;;;4.25;;
29570;SDS011;16814;52.118;11.436;2023-05-29T03:52:14;9.43;;;4.15;;
29570;SDS011;16814;52.118;11.436;2023-05-29T03:54:43;10.90;;;4.20;;
29570;SDS011;16814;52.118;11.436;2023-05-29T03:57:11;10.90;;;4.20;;
29570;SDS011;16814;52.118;11.436;2023-05-29T03:59:38;9.70;;;4.43;;
29570;SDS011;16814;52.118;11.436;2023-05-29T04:02:03;8.70;;;4.20;;
29570;SDS011;16814;52.118;11.436;2023-05-29T04:04:29;11.07;;;4.40;;
29570;SDS011;16814;52.118;11.436;2023-05-29T04:06:57;7.00;;;3.92;;
29570;SDS011;16814;52.118;11.436;2023-05-29T04:09:25;9.03;;;4.07;;
29570;SDS011;16814;52.118;11.436;2023-05-29T04:11:51;9.75;;;3.75;;
29570;SDS011;16814;52.118;11.436;2023-05-29T04:14:17;8.60;;;4.20;;
29570;SDS011;16814;52.118;11.436;2023-05-29T04:16:45;11.50;;;4.35;;
29570;SDS011;16814;52.118;11.436;2023-05-29T04:19:14;7.57;;;3.63;;
29570;SDS011;16814;52.118;11.436;2023-05-29T04:21:40;6.80;;;3.92;;
29570;SDS011;16814;52.118;11.436;2023-05-29T04:24:08;6.78;;;3.47;;
29570;SDS011;16814;52.118;11.436;2023-05-29T04:26:35;7.30;;;3.57;;
29570;SDS011;16814;52.118;11.436;2023-05-29T04:29:02;11.50;;;3.72;;
29570;SDS011;16814;52.118;11.436;2023-05-29T04:31:28;9.50;;;4.40;;
29570;SDS011;16814;52.118;11.436;2023-05-29T04:33:56;10.95;;;4.18;;
29570;SDS011;16814;52.118;11.436;2023-05-29T04:36:24;8.57;;;4.20;;
29570;SDS011;16814;52.118;11.436;2023-05-29T04:38:58;8.32;;;3.80;;
29570;SDS011;16814;52.118;11.436;2023-05-29T04:41:26;10.88;;;4.20;;
29570;SDS011;16814;52.118;11.436;2023-05-29T04:43:56;9.93;;;3.83;;
29570;SDS011;16814;52.118;11.436;2023-05-29T04:46:25;8.25;;;3.85;;
29570;SDS011;16814;52.118;11.436;2023-05-29T04:48:51;6.47;;;3.53;;
29570;SDS011;16814;52.118;11.436;2023-05-29T04:51:26;8.55;;;3.97;;
29570;SDS011;16814;52.118;11.436;2023-05-29T04:53:56;8.35;;;4.25;;
29570;SDS011;16814;52.118;11.436;2023-05-29T04:56:23;9.98;;;3.90;;
29570;SDS011;16814;52.118;11.436;2023-05-29T04:58:51;8.98;;;3.75;;
29570;SDS011;16814;52.118;11.436;2023-05-29T05:01:19;25.67;;;4.65;;
29570;SDS011;16814;52.118;11.436;2023-05-29T05:03:45;15.23;;;4.37;;
29570;SDS011;16814;52.118;11.436;2023-05-29T05:06:11;83.82;;;6.70;;
29570;SDS011;16814;52.118;11.436;2023-05-29T05:08:38;62.33;;;5.72;;
29570;SDS011;16814;52.118;11.436;2023-05-29T05:11:03;21.53;;;4.30;;
29570;SDS011;16814;52.118;11.436;2023-05-29T05:13:29;11.95;;;4.13;;
29570;SDS011;16814;52.118;11.436;2023-05-29T05:15:57;10.83;;;3.90;;
29570;SDS011;16814;52.118;11.436;2023-05-29T05:18:23;13.95;;;4.32;;
29570;SDS011;16814;52.118;11.436;2023-05-29T05:20:50;7.40;;;3.70;;
29570;SDS011;16814;52.118;11.436;2023-05-29T05:23:17;8.98;;;3.90;;
29570;SDS011;16814;52.118;11.436;2023-05-29T05:25:46;11.80;;;4.15;;
29570;SDS011;16814;52.118;11.436;2023-05-29T05:28:12;9.95;;;3.97;;
29570;SDS011;16814;52.118;11.436;2023-05-29T05:30:41;11.95;;;3.88;;
29570;SDS011;16814;52.118;11.436;2023-05-29T05:33:07;12.98;;;3.88;;
29570;SDS011;16814;52.118;11.436;2023-05-29T05:35:33;12.53;;;4.10;;
29570;SDS011;16814;52.118;11.436;2023-05-29T05:38:01;13.43;;;4.40;;
29570;SDS011;16814;52.118;11.436;2023-05-29T05:40:27;7.97;;;4.07;;
29570;SDS011;16814;52.118;11.436;2023-05-29T05:42:53;9.48;;;3.78;;
29570;SDS011;16814;52.118;11.436;2023-05-29T05:45:19;9.40;;;3.97;;
29570;SDS011;16814;52.118;11.436;2023-05-29T05:47:47;9.68;;;3.92;;
29570;SDS011;16814;52.118;11.436;2023-05-29T05:50:13;10.68;;;4.15;;
29570;SDS011;16814;52.118;11.436;2023-05-29T05:52:41;8.45;;;3.88;;
29570;SDS011;16814;52.118;11.436;2023-05-29T05:55:07;10.48;;;4.03;;
29570;SDS011;16814;52.118;11.436;2023-05-29T05:57:34;13.77;;;3.88;;
29570;SDS011;16814;52.118;11.436;2023-05-29T06:00:01;8.15;;;3.60;;
29570;SDS011;16814;52.118;11.436;2023-05-29T06:02:33;9.63;;;3.90;;
29570;SDS011;16814;52.118;11.436;2023-05-29T06:05:07;9.05;;;3.42;;
29570;SDS011;16814;52.118;11.436;2023-05-29T06:07:34;9.77;;;4.30;;
29570;SDS011;16814;52.118;11.436;2023-05-29T06:10:02;11.00;;;4.30;;
29570;SDS011;16814;52.118;11.436;2023-05-29T06:12:29;9.88;;;4.13;;
29570;SDS011;16814;52.118;11.436;2023-05-29T06:14:56;16.33;;;4.37;;
29570;SDS011;16814;52.118;11.436;2023-05-29T06:17:22;11.00;;;3.65;;
29570;SDS011;16814;52.118;11.436;2023-05-29T06:19:48;10.23;;;3.95;;
29570;SDS011;16814;52.118;11.436;2023-05-29T06:22:17;17.88;;;4.30;;
29570;SDS011;16814;52.118;11.436;2023-05-29T06:24:43;15.60;;;3.85;;
29570;SDS011;16814;52.118;11.436;2023-05-29T06:27:09;14.55;;;3.97;;
29570;SDS011;16814;52.118;11.436;2023-05-29T06:29:36;13.53;;;3.97;;
29570;SDS011;16814;52.118;11.436;2023-05-29T06:32:02;11.27;;;3.53;;
29570;SDS011;16814;52.118;11.436;2023-05-29T06:34:28;9.97;;;4.00;;
29570;SDS011;16814;52.118;11.436;2023-05-29T06:36:58;17.77;;;4.03;;
29570;SDS011;16814;52.118;11.436;2023-05-29T06:39:24;16.37;;;3.50;;
29570;SDS011;16814;52.118;11.436;2023-05-29T06:41:51;18.95;;;4.13;;
29570;SDS011;16814;52.118;11.436;2023-05-29T06:44:23;77.18;;;7.47;;
29570;SDS011;16814;52.118;11.436;2023-05-29T06:46:50;181.75;;;11.27;;
29570;SDS011;16814;52.118;11.436;2023-05-29T06:49:16;55.13;;;5.68;;
29570;SDS011;16814;52.118;11.436;2023-05-29T06:51:44;101.05;;;8.48;;
29570;SDS011;16814;52.118;11.436;2023-05-29T06:54:10;70.50;;;6.93;;
29570;SDS011;16814;52.118;11.436;2023-05-29T06:56:35;37.30;;;4.97;;
29570;SDS011;16814;52.118;11.436;2023-05-29T06:59:01;18.77;;;3.70;;
29570;SDS011;16814;52.118;11.436;2023-05-29T07:04:24;17.17;;;3.80;;
29570;SDS011;16814;52.118;11.436;2023-05-29T07:06:51;19.15;;;3.85;;
29570;SDS011;16814;52.118;11.436;2023-05-29T07:09:17;16.23;;;3.43;;
29570;SDS011;16814;52.118;11.436;2023-05-29T07:11:43;12.30;;;3.83;;
29570;SDS011;16814;52.118;11.436;2023-05-29T07:14:09;11.07;;;3.92;;
29570;SDS011;16814;52.118;11.436;2023-05-29T07:16:37;8.75;;;3.60;;
29570;SDS011;16814;52.118;11.436;2023-05-29T07:19:04;9.48;;;3.17;;
29570;SDS011;16814;52.118;11.436;2023-05-29T07:21:30;16.63;;;3.92;;
29570;SDS011;16814;52.118;11.436;2023-05-29T07:23:58;12.55;;;3.85;;
29570;SDS011;16814;52.118;11.436;2023-05-29T07:26:27;12.35;;;3.33;;
29570;SDS011;16814;52.118;11.436;2023-05-29T07:28:56;8.70;;;3.45;;
29570;SDS011;16814;52.118;11.436;2023-05-29T07:31:24;8.02;;;3.50;;
29570;SDS011;16814;52.118;11.436;2023-05-29T07:33:50;9.23;;;3.50;;
29570;SDS011;16814;52.118;11.436;2023-05-29T07:36:17;13.70;;;3.47;;
29570;SDS011;16814;52.118;11.436;2023-05-29T07:38:44;14.45;;;3.85;;
29570;SDS011;16814;52.118;11.436;2023-05-29T07:41:16;8.98;;;3.17;;
29570;SDS011;16814;52.118;11.436;2023-05-29T07:43:43;11.43;;;3.40;;
29570;SDS011;16814;52.118;11.436;2023-05-29T07:46:11;11.40;;;3.25;;
29570;SDS011;16814;52.118;11.436;2023-05-29T07:48:38;12.60;;;3.67;;
29570;SDS011;16814;52.118;11.436;2023-05-29T07:51:06;13.63;;;3.53;;
29570;SDS011;16814;52.118;11.436;2023-05-29T07:53:35;11.77;;;3.22;;
29570;SDS011;16814;52.118;11.436;2023-05-29T07:56:01;10.20;;;3.17;;
29570;SDS011;16814;52.118;11.436;2023-05-29T07:58:28;9.73;;;2.90;;
29570;SDS011;16814;52.118;11.436;2023-05-29T08:00:57;9.52;;;3.35;;
29570;SDS011;16814;52.118;11.436;2023-05-29T08:03:23;8.60;;;2.88;;
29570;SDS011;16814;52.118;11.436;2023-05-29T08:05:48;7.38;;;2.95;;
29570;SDS011;16814;52.118;11.436;2023-05-29T08:08:14;5.93;;;3.00;;
29570;SDS011;16814;52.118;11.436;2023-05-29T08:10:40;8.43;;;2.78;;
29570;SDS011;16814;52.118;11.436;2023-05-29T08:13:09;10.52;;;3.17;;
29570;SDS011;16814;52.118;11.436;2023-05-29T08:15:35;6.90;;;3.00;;
29570;SDS011;16814;52.118;11.436;2023-05-29T08:18:00;8.55;;;3.08;;
29570;SDS011;16814;52.118;11.436;2023-05-29T08:20:28;8.40;;;2.80;;
29570;SDS011;16814;52.118;11.436;2023-05-29T08:22:57;7.70;;;2.80;;
29570;SDS011;16814;52.118;11.436;2023-05-29T08:25:27;9.63;;;3.37;;
29570;SDS011;16814;52.118;11.436;2023-05-29T08:27:54;7.82;;;2.83;;
29570;SDS011;16814;52.118;11.436;2023-05-29T08:30:22;10.63;;;3.10;;
29570;SDS011;16814;52.118;11.436;2023-05-29T08:32:47;8.70;;;2.50;;
29570;SDS011;16814;52.118;11.436;2023-05-29T08:35:13;7.50;;;2.73;;
29570;SDS011;16814;52.118;11.436;2023-05-29T08:37:42;8.98;;;3.47;;
29570;SDS011;16814;52.118;11.436;2023-05-29T08:40:08;9.48;;;3.35;;
29570;SDS011;16814;52.118;11.436;2023-05-29T08:42:47;9.95;;;3.17;;
29570;SDS011;16814;52.118;11.436;2023-05-29T08:45:29;7.15;;;2.65;;
29570;SDS011;16814;52.118;11.436;2023-05-29T08:48:01;9.65;;;2.85;;
29570;SDS011;16814;52.118;11.436;2023-05-29T08:50:27;8.20;;;2.88;;
29570;SDS011;16814;52.118;11.436;2023-05-29T08:52:53;9.93;;;2.93;;
29570;SDS011;16814;52.118;11.436;2023-05-29T08:55:21;11.45;;;3.15;;
29570;SDS011;16814;52.118;11.436;2023-05-29T08:57:49;9.13;;;2.92;;
29570;SDS011;16814;52.118;11.436;2023-05-29T09:00:17;9.70;;;2.97;;
29570;SDS011;16814;52.118;11.436;2023-05-29T09:02:47;9.73;;;2.75;;
29570;SDS011;16814;52.118;11.436;2023-05-29T09:05:13;6.25;;;2.80;;
29570;SDS011;16814;52.118;11.436;2023-05-29T09:07:40;9.65;;;2.53;;
29570;SDS011;16814;52.118;11.436;2023-05-29T09:10:08;11.20;;;3.00;;
29570;SDS011;16814;52.118;11.436;2023-05-29T09:12:35;12.27;;;2.70;;
29570;SDS011;16814;52.118;11.436;2023-05-29T09:15:03;7.90;;;3.20;;
29570;SDS011;16814;52.118;11.436;2023-05-29T09:17:42;6.82;;;3.15;;
29570;SDS011;16814;52.118;11.436;2023-05-29T09:20:18;9.20;;;2.75;;
29570;SDS011;16814;52.118;11.436;2023-05-29T09:23:05;7.20;;;2.80;;
29570;SDS011;16814;52.118;11.436;2023-05-29T09:25:40;10.23;;;2.65;;
29570;SDS011;16814;52.118;11.436;2023-05-29T09:28:13;9.38;;;2.90;;
29570;SDS011;16814;52.118;11.436;2023-05-29T09:30:45;7.50;;;2.42;;
29570;SDS011;16814;52.118;11.436;2023-05-29T09:33:15;8.07;;;3.13;;
29570;SDS011;16814;52.118;11.436;2023-05-29T09:35:45;8.45;;;2.80;;
29570;SDS011;16814;52.118;11.436;2023-05-29T09:38:14;11.75;;;2.70;;
29570;SDS011;16814;52.118;11.436;2023-05-29T09:40:43;7.60;;;2.88;;
29570;SDS011;16814;52.118;11.436;2023-05-29T09:43:16;7.80;;;2.60;;
29570;SDS011;16814;52.118;11.436;2023-05-29T09:45:44;9.55;;;2.67;;
29570;SDS011;16814;52.118;11.436;2023-05-29T09:48:18;6.65;;;2.40;;
29570;SDS011;16814;52.118;11.436;2023-05-29T09:50:49;6.93;;;2.40;;
29570;SDS011;16814;52.118;11.436;2023-05-29T09:53:26;7.50;;;2.78;;
29570;SDS011;16814;52.118;11.436;2023-05-29T09:55:54;7.00;;;2.60;;
29570;SDS011;16814;52.118;11.436;2023-05-29T09:58:24;6.25;;;2.42;;
29570;SDS011;16814;52.118;11.436;2023-05-29T10:00:52;27.38;;;3.00;;
29570;SDS011;16814;52.118;11.436;2023-05-29T10:03:21;7.83;;;2.33;;
29570;SDS011;16814;52.118;11.436;2023-05-29T10:05:49;7.30;;;2.45;;
29570;SDS011;16814;52.118;11.436;2023-05-29T10:08:18;7.55;;;2.40;;
29570;SDS011;16814;52.118;11.436;2023-05-29T10:10:55;8.80;;;2.88;;
29570;SDS011;16814;52.118;11.436;2023-05-29T10:13:28;7.05;;;2.53;;
29570;SDS011;16814;52.118;11.436;2023-05-29T10:16:00;10.48;;;2.90;;
29570;SDS011;16814;52.118;11.436;2023-05-29T10:18:32;7.22;;;2.58;;
29570;SDS011;16814;52.118;11.436;2023-05-29T10:21:02;7.70;;;2.70;;
29570;SDS011;16814;52.118;11.436;2023-05-29T10:23:30;8.70;;;2.97;;
29570;SDS011;16814;52.118;11.436;2023-05-29T10:26:07;9.95;;;3.15;;
29570;SDS011;16814;52.118;11.436;2023-05-29T10:28:55;7.80;;;2.75;;
29570;SDS011;16814;52.118;11.436;2023-05-29T10:34:49;6.45;;;2.10;;
29570;SDS011;16814;52.118;11.436;2023-05-29T10:37:54;8.55;;;2.67;;
29570;SDS011;16814;52.118;11.436;2023-05-29T10:40:27;7.13;;;2.47;;
29570;SDS011;16814;52.118;11.436;2023-05-29T10:42:53;7.23;;;2.47;;
29570;SDS011;16814;52.118;11.436;2023-05-29T10:50:42;7.95;;;2.78;;
29570;SDS011;16814;52.118;11.436;2023-05-29T10:53:10;8.77;;;2.67;;
29570;SDS011;16814;52.118;11.436;2023-05-29T10:55:40;9.37;;;2.90;;
29570;SDS011;16814;52.118;11.436;2023-05-29T10:58:06;12.20;;;3.28;;
29570;SDS011;16814;52.118;11.436;2023-05-29T11:00:33;13.57;;;2.85;;
29570;SDS011;16814;52.118;11.436;2023-05-29T11:03:07;11.63;;;2.72;;
29570;SDS011;16814;52.118;11.436;2023-05-29T11:05:35;7.85;;;3.00;;
29570;SDS011;16814;52.118;11.436;2023-05-29T11:14:04;11.95;;;3.03;;
29570;SDS011;16814;52.118;11.436;2023-05-29T11:19:03;8.05;;;2.90;;
29570;SDS011;16814;52.118;11.436;2023-05-29T11:21:53;8.30;;;3.15;;
29570;SDS011;16814;52.118;11.436;2023-05-29T11:24:37;14.93;;;3.27;;
29570;SDS011;16814;52.118;11.436;2023-05-29T11:27:05;11.48;;;3.15;;
29570;SDS011;16814;52.118;11.436;2023-05-29T11:29:33;11.68;;;3.20;;
29570;SDS011;16814;52.118;11.436;2023-05-29T11:32:06;10.05;;;3.78;;
29570;SDS011;16814;52.118;11.436;2023-05-29T11:34:37;8.50;;;2.90;;
29570;SDS011;16814;52.118;11.436;2023-05-29T11:37:06;8.10;;;2.85;;
29570;SDS011;16814;52.118;11.436;2023-05-29T11:39:42;8.98;;;2.80;;
29570;SDS011;16814;52.118;11.436;2023-05-29T11:42:21;13.13;;;3.45;;
29570;SDS011;16814;52.118;11.436;2023-05-29T11:44:47;9.57;;;3.78;;
29570;SDS011;16814;52.118;11.436;2023-05-29T11:47:14;7.15;;;3.10;;
29570;SDS011;16814;52.118;11.436;2023-05-29T11:49:40;10.10;;;3.53;;
29570;SDS011;16814;52.118;11.436;2023-05-29T11:52:13;10.27;;;3.08;;
29570;SDS011;16814;52.118;11.436;2023-05-29T11:54:43;9.63;;;3.05;;
29570;SDS011;16814;52.118;11.436;2023-05-29T11:57:21;11.23;;;3.42;;
29570;SDS011;16814;52.118;11.436;2023-05-29T11:59:51;7.63;;;3.20;;
29570;SDS011;16814;52.118;11.436;2023-05-29T12:02:18;11.50;;;3.50;;
29570;SDS011;16814;52.118;11.436;2023-05-29T12:05:01;6.28;;;2.97;;
29570;SDS011;16814;52.118;11.436;2023-05-29T12:07:49;8.07;;;3.45;;
29570;SDS011;16814;52.118;11.436;2023-05-29T12:10:23;10.65;;;2.83;;
29570;SDS011;16814;52.118;11.436;2023-05-29T12:12:52;12.45;;;3.25;;
29570;SDS011;16814;52.118;11.436;2023-05-29T12:15:21;6.85;;;2.90;;
29570;SDS011;16814;52.118;11.436;2023-05-29T12:17:50;7.32;;;3.08;;
29570;SDS011;16814;52.118;11.436;2023-05-29T12:20:21;7.97;;;2.75;;
29570;SDS011;16814;52.118;11.436;2023-05-29T12:22:51;7.93;;;2.92;;
29570;SDS011;16814;52.118;11.436;2023-05-29T12:25:20;10.07;;;2.92;;
29570;SDS011;16814;52.118;11.436;2023-05-29T12:27:47;8.80;;;3.10;;
29570;SDS011;16814;52.118;11.436;2023-05-29T12:30:21;7.43;;;3.25;;
29570;SDS011;16814;52.118;11.436;2023-05-29T12:32:48;8.13;;;3.10;;
29570;SDS011;16814;52.118;11.436;2023-05-29T12:35:23;10.65;;;2.95;;
29570;SDS011;16814;52.118;11.436;2023-05-29T12:38:01;6.18;;;2.80;;
29570;SDS011;16814;52.118;11.436;2023-05-29T12:40:31;12.13;;;4.20;;
29570;SDS011;16814;52.118;11.436;2023-05-29T12:43:06;8.95;;;2.88;;
29570;SDS011;16814;52.118;11.436;2023-05-29T12:45:35;8.95;;;3.00;;
29570;SDS011;16814;52.118;11.436;2023-05-29T12:48:05;6.20;;;2.80;;
29570;SDS011;16814;52.118;11.436;2023-05-29T12:50:38;6.80;;;3.30;;
29570;SDS011;16814;52.118;11.436;2023-05-29T12:53:06;7.20;;;3.13;;
29570;SDS011;16814;52.118;11.436;2023-05-29T12:55:36;11.38;;;3.50;;
29570;SDS011;16814;52.118;11.436;2023-05-29T12:58:12;10.40;;;3.47;;
29570;SDS011;16814;52.118;11.436;2023-05-29T13:00:43;10.38;;;3.30;;
29570;SDS011;16814;52.118;11.436;2023-05-29T13:03:15;7.47;;;2.85;;
29570;SDS011;16814;52.118;11.436;2023-05-29T13:05:42;6.72;;;2.72;;
29570;SDS011;16814;52.118;11.436;2023-05-29T13:08:09;8.47;;;3.23;;
29570;SDS011;16814;52.118;11.436;2023-05-29T13:10:34;7.20;;;3.23;;
29570;SDS011;16814;52.118;11.436;2023-05-29T13:13:01;7.35;;;2.90;;
29570;SDS011;16814;52.118;11.436;2023-05-29T13:15:28;9.98;;;3.10;;
29570;SDS011;16814;52.118;11.436;2023-05-29T13:17:57;6.22;;;2.70;;
29570;SDS011;16814;52.118;11.436;2023-05-29T13:20:24;8.00;;;3.37;;
29570;SDS011;16814;52.118;11.436;2023-05-29T13:22:51;8.07;;;3.08;;
29570;SDS011;16814;52.118;11.436;2023-05-29T13:25:19;8.57;;;3.10;;
29570;SDS011;16814;52.118;11.436;2023-05-29T13:27:47;8.60;;;3.03;;
29570;SDS011;16814;52.118;11.436;2023-05-29T13:30:15;7.72;;;2.85;;
29570;SDS011;16814;52.118;11.436;2023-05-29T13:32:42;10.13;;;3.30;;
29570;SDS011;16814;52.118;11.436;2023-05-29T13:35:11;8.38;;;3.17;;
29570;SDS011;16814;52.118;11.436;2023-05-29T13:37:38;8.15;;;3.13;;
29570;SDS011;16814;52.118;11.436;2023-05-29T13:40:06;7.35;;;2.95;;
29570;SDS011;16814;52.118;11.436;2023-05-29T13:42:35;8.55;;;3.20;;
29570;SDS011;16814;52.118;11.436;2023-05-29T13:45:02;8.03;;;2.97;;
29570;SDS011;16814;52.118;11.436;2023-05-29T13:47:28;6.63;;;2.92;;
29570;SDS011;16814;52.118;11.436;2023-05-29T13:49:56;7.77;;;2.80;;
29570;SDS011;16814;52.118;11.436;2023-05-29T13:52:22;6.60;;;2.93;;
29570;SDS011;16814;52.118;11.436;2023-05-29T13:54:48;6.00;;;2.67;;
29570;SDS011;16814;52.118;11.436;2023-05-29T13:57:15;8.27;;;2.77;;
29570;SDS011;16814;52.118;11.436;2023-05-29T13:59:41;9.23;;;3.47;;
29570;SDS011;16814;52.118;11.436;2023-05-29T14:02:08;5.10;;;2.42;;
29570;SDS011;16814;52.118;11.436;2023-05-29T14:04:34;7.70;;;2.80;;
29570;SDS011;16814;52.118;11.436;2023-05-29T14:07:00;9.77;;;2.83;;
29570;SDS011;16814;52.118;11.436;2023-05-29T14:09:25;7.57;;;2.50;;
29570;SDS011;16814;52.118;11.436;2023-05-29T14:11:58;9.57;;;2.70;;
29570;SDS011;16814;52.118;11.436;2023-05-29T14:14:25;7.18;;;2.60;;
29570;SDS011;16814;52.118;11.436;2023-05-29T14:16:51;8.07;;;3.10;;
29570;SDS011;16814;52.118;11.436;2023-05-29T14:19:19;7.97;;;3.08;;
29570;SDS011;16814;52.118;11.436;2023-05-29T14:21:45;6.82;;;2.42;;
29570;SDS011;16814;52.118;11.436;2023-05-29T14:24:12;7.18;;;2.78;;
29570;SDS011;16814;52.118;11.436;2023-05-29T14:26:40;7.88;;;2.75;;
29570;SDS011;16814;52.118;11.436;2023-05-29T14:29:13;7.80;;;2.70;;
29570;SDS011;16814;52.118;11.436;2023-05-29T14:31:41;6.78;;;2.67;;
29570;SDS011;16814;52.118;11.436;2023-05-29T14:34:09;5.07;;;2.40;;
29570;SDS011;16814;52.118;11.436;2023-05-29T14:36:38;9.88;;;2.67;;
29570;SDS011;16814;52.118;11.436;2023-05-29T14:39:07;7.45;;;2.90;;
29570;SDS011;16814;52.118;11.436;2023-05-29T14:41:33;8.20;;;2.42;;
29570;SDS011;16814;52.118;11.436;2023-05-29T14:44:00;7.90;;;2.60;;
29570;SDS011;16814;52.118;11.436;2023-05-29T14:46:27;7.22;;;2.65;;
29570;SDS011;16814;52.118;11.436;2023-05-29T14:48:58;6.85;;;2.40;;
29570;SDS011;16814;52.118;11.436;2023-05-29T14:51:28;6.43;;;2.42;;
29570;SDS011;16814;52.118;11.436;2023-05-29T14:53:54;6.93;;;2.65;;
29570;SDS011;16814;52.118;11.436;2023-05-29T14:56:21;5.30;;;2.40;;
29570;SDS011;16814;52.118;11.436;2023-05-29T14:58:48;6.78;;;2.33;;
29570;SDS011;16814;52.118;11.436;2023-05-29T15:01:17;4.40;;;2.20;;
29570;SDS011;16814;52.118;11.436;2023-05-29T15:03:43;7.05;;;2.50;;
29570;SDS011;16814;52.118;11.436;2023-05-29T15:06:10;8.23;;;2.77;;